Time;durP1;ratioP1;P1;durP2;ratioP2;P2;SDS_P1;SDS_P2;PMS_P1;PMS_P2;Temp;Humidity;BMP_temperature;BMP_pressure;BME280_temperature;BME280_humidity;BME280_pressure;Samples;Min_cycle;Max_cycle;Signal;HPM_P1;HPM_P2
2023/09/22 00:03:05;;;;;;;8.38;4.43;;;;;;;12.62;100.00;99645.00;10450635;28;20050;-72
2023/09/22 00:08:06;;;;;;;8.52;3.97;;;;;;;12.70;100.00;99641.56;10448289;28;20033;-72
2023/09/22 00:13:07;;;;;;;9.95;4.35;;;;;;;12.75;100.00;99637.91;10441965;28;20040;-72
2023/09/22 00:18:07;;;;;;;7.95;4.40;;;;;;;12.84;100.00;99635.31;10448685;28;20037;-71
2023/09/22 00:23:07;;;;;;;8.05;4.55;;;;;;;12.86;100.00;99636.63;10449350;28;20037;-72
2023/09/22 00:28:09;;;;;;;8.63;4.32;;;;;;;12.93;100.00;99628.78;10449726;28;20040;-72
2023/09/22 00:33:10;;;;;;;10.13;4.53;;;;;;;12.89;100.00;99626.91;10441572;28;20048;-72
2023/09/22 00:38:11;;;;;;;9.40;4.35;;;;;;;12.96;100.00;99640.34;10477356;28;20096;-73
2023/09/22 00:43:11;;;;;;;10.05;5.32;;;;;;;13.01;100.00;99646.63;10479366;28;20374;-72
2023/09/22 00:48:19;;;;;;;9.88;4.47;;;;;;;13.04;100.00;99647.97;10485518;28;20028;-71
2023/09/22 00:53:19;;;;;;;9.77;4.30;;;;;;;13.13;100.00;99646.16;10483316;28;20029;-72
2023/09/22 00:58:20;;;;;;;11.35;4.93;;;;;;;13.19;100.00;99646.88;10482588;28;20044;-72
2023/09/22 01:03:20;;;;;;;7.47;4.95;;;;;;;13.23;100.00;99642.38;10482008;28;20063;-72
2023/09/22 01:08:21;;;;;;;9.30;4.18;;;;;;;13.24;100.00;99639.34;10484960;28;20029;-71
2023/09/22 01:13:21;;;;;;;12.27;4.97;;;;;;;13.28;100.00;99645.09;10484913;28;20037;-70
2023/09/22 01:18:22;;;;;;;13.60;4.78;;;;;;;13.34;100.00;99651.38;10479098;28;20103;-71
2023/09/22 01:23:22;;;;;;;16.17;6.50;;;;;;;13.39;100.00;99663.16;10485615;28;20071;-71
2023/09/22 01:28:23;;;;;;;22.63;7.10;;;;;;;13.34;100.00;99643.09;10480827;28;20056;-70
2023/09/22 01:33:23;;;;;;;18.63;7.70;;;;;;;13.41;100.00;99647.09;10486558;28;20044;-72
2023/09/22 01:38:24;;;;;;;24.45;7.70;;;;;;;13.42;100.00;99640.44;10479157;28;20493;-72
2023/09/22 01:43:24;;;;;;;27.95;9.23;;;;;;;13.40;100.00;99636.34;10488592;28;20052;-72
2023/09/22 01:48:25;;;;;;;25.48;8.93;;;;;;;13.52;100.00;99647.75;10476581;28;20045;-73
2023/09/22 01:53:25;;;;;;;37.80;12.23;;;;;;;13.51;100.00;99649.66;10485968;28;20080;-72
2023/09/22 01:58:25;;;;;;;41.53;14.57;;;;;;;13.53;100.00;99647.41;10483828;28;20055;-71
2023/09/22 02:03:26;;;;;;;38.17;14.50;;;;;;;13.58;100.00;99635.47;10480497;28;20048;-73
2023/09/22 02:08:27;;;;;;;44.33;15.20;;;;;;;13.60;100.00;99630.47;10482174;28;20032;-72
2023/09/22 02:13:27;;;;;;;46.95;16.90;;;;;;;13.63;100.00;99626.25;10480800;28;20069;-71
2023/09/22 02:18:27;;;;;;;51.97;18.35;;;;;;;13.58;100.00;99634.63;10481969;28;20049;-71
2023/09/22 02:23:28;;;;;;;49.13;19.65;;;;;;;13.47;100.00;99625.72;10473167;28;20120;-70
2023/09/22 02:28:28;;;;;;;51.60;19.48;;;;;;;13.44;100.00;99634.63;10482349;28;20044;-72
2023/09/22 02:33:29;;;;;;;54.88;20.83;;;;;;;13.41;100.00;99629.69;10479131;28;20041;-72
2023/09/22 02:38:29;;;;;;;53.65;20.08;;;;;;;13.46;100.00;99637.91;10484549;28;20082;-71
2023/09/22 02:43:30;;;;;;;56.08;20.73;;;;;;;13.47;100.00;99648.63;10478363;28;20041;-72
2023/09/22 02:48:30;;;;;;;56.17;20.98;;;;;;;13.40;100.00;99642.69;10485176;28;20029;-72
2023/09/22 02:53:31;;;;;;;58.03;21.02;;;;;;;13.29;100.00;99649.50;10468998;28;20079;-72
2023/09/22 02:58:32;;;;;;;58.83;20.58;;;;;;;13.18;100.00;99656.31;10479818;28;20041;-72
2023/09/22 03:03:32;;;;;;;65.18;21.65;;;;;;;13.09;100.00;99651.47;10476490;28;20041;-72
2023/09/22 03:08:33;;;;;;;66.85;22.85;;;;;;;13.08;100.00;99673.88;10480912;28;20064;-72
2023/09/22 03:13:33;;;;;;;62.83;23.20;;;;;;;13.14;100.00;99672.66;10480117;28;20112;-71
2023/09/22 03:18:34;;;;;;;62.42;23.10;;;;;;;13.22;100.00;99674.75;10478896;28;20036;-71
2023/09/22 03:23:34;;;;;;;61.92;22.40;;;;;;;13.36;100.00;99679.53;10468046;28;20071;-73
2023/09/22 03:28:35;;;;;;;61.47;21.88;;;;;;;13.40;100.00;99684.16;10478747;28;20044;-71
2023/09/22 03:33:35;;;;;;;66.38;22.80;;;;;;;13.37;100.00;99693.03;10480356;28;20384;-72
2023/09/22 03:38:40;;;;;;;60.50;21.95;;;;;;;13.39;100.00;99696.31;10477892;28;20037;-70
2023/09/22 03:43:41;;;;;;;64.45;20.98;;;;;;;13.36;100.00;99693.38;10446056;28;20071;-71
2023/09/22 03:48:42;;;;;;;67.50;21.02;;;;;;;13.40;100.00;99686.94;10475302;28;20458;-71
2023/09/22 03:53:42;;;;;;;62.28;20.90;;;;;;;13.37;100.00;99681.97;10461416;28;20063;-71
2023/09/22 03:58:43;;;;;;;60.72;23.17;;;;;;;13.33;100.00;99678.19;10476435;28;20048;-71
2023/09/22 04:03:43;;;;;;;61.08;21.52;;;;;;;13.32;100.00;99673.78;10482439;28;20067;-72
2023/09/22 04:08:44;;;;;;;56.88;21.45;;;;;;;13.30;100.00;99681.56;10474843;28;20044;-72
2023/09/22 04:13:44;;;;;;;56.97;20.55;;;;;;;13.25;100.00;99689.91;10480914;28;20507;-71
2023/09/22 04:18:45;;;;;;;57.45;20.95;;;;;;;13.19;100.00;99685.56;10473085;28;20056;-71
2023/09/22 04:23:50;;;;;;;58.22;20.10;;;;;;;13.21;100.00;99695.22;10463141;28;20063;-72
2023/09/22 04:28:50;;;;;;;56.70;20.20;;;;;;;13.24;100.00;99700.13;10473306;28;20037;-72
2023/09/22 04:33:52;;;;;;;55.85;20.13;;;;;;;13.23;100.00;99703.19;10478668;28;20100;-72
2023/09/22 04:38:52;;;;;;;51.88;19.33;;;;;;;13.16;100.00;99703.59;10476979;28;20053;-72
2023/09/22 04:43:55;;;;;;;47.17;17.83;;;;;;;13.23;100.00;99703.19;10454714;28;20050;-71
2023/09/22 04:48:56;;;;;;;46.42;18.35;;;;;;;13.20;100.00;99737.78;10475052;28;20636;-72
2023/09/22 04:53:56;;;;;;;51.70;19.98;;;;;;;13.19;100.00;99725.09;10477338;28;20394;-73
2023/09/22 04:58:57;;;;;;;54.70;21.00;;;;;;;13.20;100.00;99731.44;10473621;28;20037;-73
2023/09/22 05:03:57;;;;;;;50.20;18.88;;;;;;;13.18;100.00;99739.22;10464959;28;20045;-73
2023/09/22 05:08:58;;;;;;;51.60;22.00;;;;;;;13.16;100.00;99758.03;10473801;28;20054;-73
2023/09/22 05:13:58;;;;;;;53.85;21.13;;;;;;;13.12;100.00;99753.13;10475796;28;20446;-72
2023/09/22 05:19:02;;;;;;;49.75;19.83;;;;;;;13.01;100.00;99765.41;10471426;28;20032;-73
2023/09/22 05:24:04;;;;;;;56.53;22.02;;;;;;;12.99;100.00;99769.63;10473595;28;20556;-73
2023/09/22 05:29:05;;;;;;;54.03;19.98;;;;;;;13.02;100.00;99769.84;10482097;28;20048;-73
2023/09/22 05:34:05;;;;;;;60.65;21.67;;;;;;;13.00;100.00;99780.38;10479945;28;20045;-73
2023/09/22 05:39:08;;;;;;;53.25;20.63;;;;;;;12.99;100.00;99781.47;10467868;28;20044;-73
2023/09/22 05:44:09;;;;;;;62.00;22.92;;;;;;;12.94;100.00;99798.13;10477999;28;20456;-74
2023/09/22 05:49:14;;;;;;;57.20;19.90;;;;;;;12.89;100.00;99803.72;10486190;28;20087;-74
2023/09/22 05:54:14;;;;;;;52.22;20.55;;;;;;;12.79;100.00;99814.88;10478835;28;20036;-73
2023/09/22 05:59:15;;;;;;;56.25;22.25;;;;;;;12.78;100.00;99818.78;10485346;28;20040;-73
2023/09/22 06:04:16;;;;;;;52.92;21.48;;;;;;;12.78;100.00;99824.31;10480787;28;20056;-73
2023/09/22 06:09:16;;;;;;;59.28;23.20;;;;;;;12.79;100.00;99831.47;10483244;28;20036;-73
2023/09/22 06:14:17;;;;;;;58.10;24.00;;;;;;;12.71;100.00;99819.97;10476067;28;20820;-72
2023/09/22 06:19:18;;;;;;;62.53;23.35;;;;;;;12.75;100.00;99830.41;10478954;28;20115;-67
2023/09/22 06:24:20;;;;;;;57.92;23.00;;;;;;;12.82;100.00;99844.69;10482150;28;20048;-70
2023/09/22 06:29:20;;;;;;;53.55;22.77;;;;;;;12.91;100.00;99848.44;10481644;28;20048;-72
2023/09/22 06:34:21;;;;;;;53.20;21.98;;;;;;;12.95;100.00;99841.19;10481476;28;20047;-72
2023/09/22 06:39:21;;;;;;;43.83;19.75;;;;;;;13.00;100.00;99845.84;10482176;28;20037;-74
2023/09/22 06:44:22;;;;;;;39.83;18.52;;;;;;;13.07;100.00;99855.41;10476684;28;20033;-73
2023/09/22 06:49:24;;;;;;;42.40;18.63;;;;;;;13.20;100.00;99853.06;10467811;28;20496;-74
2023/09/22 06:54:26;;;;;;;36.78;16.90;;;;;;;13.26;100.00;99857.38;10482291;28;20041;-73
2023/09/22 06:59:26;;;;;;;36.05;18.95;;;;;;;13.45;100.00;99855.47;10476580;28;20484;-73
2023/09/22 07:04:27;;;;;;;38.22;17.80;;;;;;;13.49;100.00;99859.28;10484694;28;20052;-74
2023/09/22 07:09:27;;;;;;;31.98;15.98;;;;;;;13.31;100.00;99855.41;10475973;28;20037;-74
2023/09/22 07:14:29;;;;;;;34.05;15.57;;;;;;;13.41;100.00;99868.25;10478545;28;20124;-72
2023/09/22 07:19:31;;;;;;;28.60;16.02;;;;;;;13.47;100.00;99875.34;10481675;28;20182;-73
2023/09/22 07:24:32;;;;;;;28.30;14.27;;;;;;;13.47;100.00;99874.53;10459512;28;20061;-73
2023/09/22 07:29:32;;;;;;;30.25;14.57;;;;;;;13.57;100.00;99879.94;10447085;28;20036;-73
2023/09/22 07:34:33;;;;;;;24.45;13.52;;;;;;;13.72;100.00;99898.25;10455563;28;20094;-72
2023/09/22 07:39:35;;;;;;;20.95;11.68;;;;;;;13.64;100.00;99901.69;10450350;28;20052;-73
2023/09/22 07:44:36;;;;;;;19.40;11.13;;;;;;;13.69;100.00;99905.19;10443560;28;20080;-75
2023/09/22 07:49:37;;;;;;;22.10;11.45;;;;;;;13.64;100.00;99918.28;10449525;28;20061;-73
2023/09/22 07:54:37;;;;;;;21.80;10.20;;;;;;;13.64;100.00;99929.34;10449512;28;20052;-74
2023/09/22 07:59:38;;;;;;;20.42;10.80;;;;;;;13.64;100.00;99921.03;10443627;28;20044;-69
2023/09/22 08:04:39;;;;;;;19.80;11.13;;;;;;;13.64;100.00;99937.63;10442935;28;20562;-71
2023/09/22 08:09:40;;;;;;;17.33;10.00;;;;;;;13.51;100.00;99914.31;10452041;28;20064;-72
2023/09/22 08:14:41;;;;;;;16.80;10.07;;;;;;;13.55;100.00;99931.94;10414844;28;20104;-73
2023/09/22 08:19:42;;;;;;;18.40;10.13;;;;;;;13.68;100.00;99941.44;10463326;28;20082;-71
2023/09/22 08:24:42;;;;;;;18.83;10.10;;;;;;;13.62;100.00;99940.72;10473429;28;20103;-73
2023/09/22 08:29:43;;;;;;;15.30;9.55;;;;;;;13.66;100.00;99949.22;10480327;28;20040;-72
2023/09/22 08:34:44;;;;;;;16.63;9.68;;;;;;;13.85;100.00;99936.25;10475627;28;20053;-73
2023/09/22 08:39:44;;;;;;;16.17;9.82;;;;;;;14.36;100.00;99942.09;10446443;28;20048;-73
2023/09/22 08:44:45;;;;;;;15.52;8.82;;;;;;;14.70;100.00;99961.22;10454475;28;20078;-73
2023/09/22 08:49:45;;;;;;;13.38;7.78;;;;;;;14.78;100.00;99959.66;10447657;28;20045;-73
2023/09/22 08:54:46;;;;;;;11.48;7.68;;;;;;;14.70;100.00;99972.28;10450760;28;20507;-72
2023/09/22 08:59:46;;;;;;;11.95;6.75;;;;;;;14.60;100.00;99970.50;10471701;28;20044;-67
2023/09/22 09:04:47;;;;;;;10.93;6.93;;;;;;;14.41;100.00;99970.53;10477420;28;20044;-73
2023/09/22 09:09:48;;;;;;;11.20;7.22;;;;;;;14.63;100.00;99972.66;10485346;28;20033;-72
2023/09/22 09:14:49;;;;;;;8.02;4.05;;;;;;;14.65;100.00;99969.59;10456755;28;20044;-74
2023/09/22 09:19:56;;;;;;;8.27;3.42;;;;;;;14.76;100.00;99984.06;10467817;28;20037;-73
2023/09/22 09:25:01;;;;;;;5.13;2.70;;;;;;;14.67;100.00;99954.31;10480111;28;20404;-73
2023/09/22 09:30:08;;;;;;;6.35;3.00;;;;;;;14.83;100.00;99973.44;10487806;28;20044;-71
2023/09/22 09:35:09;;;;;;;6.93;3.10;;;;;;;15.03;100.00;99970.28;10479830;28;20100;-73
2023/09/22 09:40:10;;;;;;;6.63;3.03;;;;;;;15.13;100.00;99985.88;10478686;28;20063;-72
2023/09/22 09:45:11;;;;;;;6.43;3.33;;;;;;;15.18;100.00;99979.44;10476129;28;20044;-71
2023/09/22 09:50:12;;;;;;;7.18;3.75;;;;;;;15.29;100.00;99983.66;10467559;28;20047;-71
2023/09/22 09:55:14;;;;;;;5.95;2.53;;;;;;;15.72;100.00;99970.28;10460687;28;20063;-71
2023/09/22 10:00:19;;;;;;;3.13;1.90;;;;;;;16.05;100.00;99963.75;10474656;28;20040;-72
2023/09/22 10:05:21;;;;;;;5.55;1.95;;;;;;;16.60;100.00;99955.19;10485807;28;20041;-72
2023/09/22 10:10:21;;;;;;;1.20;0.95;;;;;;;16.80;100.00;99947.44;10478008;28;20041;-71
2023/09/22 10:15:50;;;;;;;2.15;0.77;;;;;;;17.03;100.00;99951.00;10473578;28;20487;-74
2023/09/22 10:20:51;;;;;;;1.02;0.70;;;;;;;17.12;100.00;99938.78;10472114;28;20037;-73
2023/09/22 10:26:16;;;;;;;1.25;0.70;;;;;;;16.91;100.00;99926.59;10485230;28;20064;-72
2023/09/22 10:31:17;;;;;;;2.13;1.20;;;;;;;16.77;100.00;99960.03;10449838;28;20377;-72
2023/09/22 10:36:47;;;;;;;4.20;1.25;;;;;;;16.33;100.00;99939.47;10480642;28;20032;-72
2023/09/22 10:42:00;;;;;;;4.15;1.45;;;;;;;16.58;100.00;99935.22;10467362;28;20082;-74
2023/09/22 10:47:00;;;;;;;10.15;2.15;;;;;;;16.79;100.00;99940.25;10454004;28;20143;-72
2023/09/22 10:52:01;;;;;;;2.03;1.13;;;;;;;17.06;100.00;99928.94;10483435;28;20043;-72
2023/09/22 10:57:01;;;;;;;3.08;1.10;;;;;;;17.47;100.00;99929.75;10476061;28;20144;-72
2023/09/22 11:02:02;;;;;;;3.05;0.80;;;;;;;18.48;100.00;99919.31;10479156;28;20074;-73
2023/09/22 11:07:04;;;;;;;1.85;0.47;;;;;;;18.52;100.00;99922.25;10448270;28;20040;-72
2023/09/22 11:12:05;;;;;;;2.58;0.70;;;;;;;18.21;100.00;99940.00;10450759;28;20418;-72
2023/09/22 11:17:05;;;;;;;2.33;0.60;;;;;;;18.03;100.00;99941.97;10461829;28;20096;-71
2023/09/22 11:22:06;;;;;;;1.45;0.65;;;;;;;18.21;100.00;99940.00;10452555;28;20041;-70
2023/09/22 11:27:07;;;;;;;3.47;1.38;;;;;;;18.55;100.00;99941.91;10441786;28;20037;-71
2023/09/22 11:32:08;;;;;;;3.60;1.02;;;;;;;18.47;100.00;99931.59;10444330;28;20041;-73
2023/09/22 11:37:09;;;;;;;1.15;0.60;;;;;;;18.69;100.00;99935.34;10443542;28;20041;-71
2023/09/22 11:42:09;;;;;;;2.22;0.43;;;;;;;18.97;100.00;99916.22;10446690;28;20416;-70
2023/09/22 11:47:21;;;;;;;2.47;0.60;;;;;;;19.28;100.00;99943.84;10450063;28;20532;-72
2023/09/22 11:52:32;;;;;;;3.30;0.60;;;;;;;19.59;100.00;99956.63;10438217;28;20044;-72
2023/09/22 11:57:32;;;;;;;6.28;1.38;;;;;;;19.88;100.00;99950.25;10453191;28;20041;-73
2023/09/22 12:02:33;;;;;;;1.95;0.60;;;;;;;20.83;100.00;99956.16;10443552;28;20037;-72
2023/09/22 12:07:33;;;;;;;1.98;0.60;;;;;;;21.56;100.00;99944.25;10433857;28;20037;-72
2023/09/22 12:12:35;;;;;;;1.52;0.55;;;;;;;20.32;100.00;99970.28;10451409;28;20378;-70
2023/09/22 12:17:35;;;;;;;1.50;0.82;;;;;;;19.03;100.00;99979.06;10453693;28;20032;-71
2023/09/22 12:22:36;;;;;;;2.88;0.60;;;;;;;18.41;100.00;99988.66;10446724;28;20045;-71
2023/09/22 12:27:36;;;;;;;1.63;0.30;;;;;;;18.14;100.00;100006.53;10450071;28;20116;-71
2023/09/22 12:32:37;;;;;;;3.55;0.70;;;;;;;18.12;100.00;100008.81;10475357;28;20109;-71
2023/09/22 12:37:37;;;;;;;1.38;0.60;;;;;;;17.75;100.00;100022.13;10472861;28;20041;-72
2023/09/22 12:42:38;;;;;;;2.20;0.60;;;;;;;17.64;100.00;100021.63;10467339;28;20048;-67
2023/09/22 12:47:38;;;;;;;1.52;0.98;;;;;;;17.92;100.00;100030.59;10472783;28;20044;-64
2023/09/22 12:52:40;;;;;;;1.35;0.70;;;;;;;17.91;100.00;100036.47;10476029;28;21387;-71
2023/09/22 12:57:40;;;;;;;1.52;0.60;;;;;;;17.70;100.00;100036.22;10475204;28;20043;-72
2023/09/22 13:02:41;;;;;;;4.05;0.93;;;;;;;17.45;100.00;100054.47;10475056;28;20092;-72
2023/09/22 13:07:41;;;;;;;0.82;0.55;;;;;;;17.35;100.00;100059.16;10466460;28;20113;-71
2023/09/22 13:12:43;;;;;;;1.15;0.70;;;;;;;17.19;100.00;100059.88;10466099;28;20044;-71
2023/09/22 13:17:46;;;;;;;1.27;0.75;;;;;;;16.96;100.00;100057.13;10476022;28;20089;-72
2023/09/22 13:22:47;;;;;;;2.00;0.95;;;;;;;16.84;100.00;100068.00;10471558;28;20056;-71
2023/09/22 13:27:48;;;;;;;4.55;1.17;;;;;;;16.64;100.00;100067.34;10478972;28;20086;-72
2023/09/22 13:32:50;;;;;;;1.10;0.85;;;;;;;16.59;100.00;100067.47;10466385;28;20438;-72
2023/09/22 13:37:51;;;;;;;2.60;0.65;;;;;;;16.51;100.00;100082.09;10441123;28;20038;-73
2023/09/22 13:42:51;;;;;;;3.72;0.80;;;;;;;16.61;100.00;100083.81;10439698;28;20095;-71
2023/09/22 13:47:52;;;;;;;3.70;0.93;;;;;;;16.62;100.00;100080.75;10470954;28;20052;-72
2023/09/22 13:52:53;;;;;;;1.45;0.70;;;;;;;16.52;100.00;100081.78;10473350;28;20041;-72
2023/09/22 13:57:54;;;;;;;0.95;0.80;;;;;;;16.59;100.00;100089.69;10484043;28;20037;-71
2023/09/22 14:02:56;;;;;;;2.75;1.00;;;;;;;16.38;100.00;100055.19;10472092;28;20037;-71
2023/09/22 14:07:57;;;;;;;2.80;1.27;;;;;;;16.54;100.00;100081.47;10448339;28;20045;-73
2023/09/22 14:12:57;;;;;;;0.88;0.77;;;;;;;16.46;100.00;100079.44;10482799;28;20424;-71
2023/09/22 14:17:58;;;;;;;1.33;0.90;;;;;;;16.24;100.00;100085.78;10471838;28;20036;-74
2023/09/22 14:22:59;;;;;;;1.35;0.75;;;;;;;16.10;100.00;100085.78;10465575;28;20083;-73
2023/09/22 14:27:59;;;;;;;2.15;0.93;;;;;;;16.02;100.00;100092.06;10484004;28;20040;-72
2023/09/22 14:33:00;;;;;;;0.95;0.55;;;;;;;15.91;100.00;100078.41;10477703;28;20037;-68
2023/09/22 14:38:00;;;;;;;2.75;0.88;;;;;;;15.95;100.00;100081.38;10462574;28;20076;-71
2023/09/22 14:43:01;;;;;;;1.40;0.52;;;;;;;16.02;100.00;100100.41;10470964;28;20071;-71
2023/09/22 14:48:01;;;;;;;2.53;0.80;;;;;;;16.16;100.00;100090.09;10483884;28;20041;-71
2023/09/22 14:53:02;;;;;;;1.38;0.70;;;;;;;16.33;100.00;100093.06;10477841;28;20438;-71
2023/09/22 14:58:02;;;;;;;1.17;0.68;;;;;;;16.32;100.00;100101.69;10482791;28;20047;-70
2023/09/22 15:03:03;;;;;;;1.20;0.60;;;;;;;16.25;100.00;100121.56;10482792;28;20050;-72
2023/09/22 15:08:04;;;;;;;1.55;0.88;;;;;;;16.21;100.00;100119.75;10479180;28;20055;-71
2023/09/22 15:13:05;;;;;;;1.38;0.88;;;;;;;16.25;100.00;100118.78;10465869;28;20053;-71
2023/09/22 15:18:05;;;;;;;2.30;1.00;;;;;;;16.35;100.00;100128.88;10473495;28;20060;-70
2023/09/22 15:23:06;;;;;;;1.58;0.90;;;;;;;16.51;100.00;100123.78;10479378;28;20041;-72
2023/09/22 15:28:06;;;;;;;2.75;1.27;;;;;;;16.65;100.00;100134.88;10459364;28;20041;-71
2023/09/22 15:33:07;;;;;;;2.55;1.05;;;;;;;16.68;100.00;100129.50;10481030;28;20055;-71
2023/09/22 15:38:12;;;;;;;3.35;1.02;;;;;;;16.73;100.00;100137.72;10476750;28;20037;-71
2023/09/22 15:43:13;;;;;;;1.67;1.00;;;;;;;16.61;100.00;100145.78;10469612;28;20032;-70
2023/09/22 15:48:14;;;;;;;1.00;0.90;;;;;;;16.42;100.00;100136.78;10473866;28;20037;-71
2023/09/22 15:53:15;;;;;;;3.08;1.05;;;;;;;16.47;100.00;100158.88;10481962;28;20090;-70
2023/09/22 15:58:15;;;;;;;2.55;0.82;;;;;;;16.32;100.00;100160.84;10474135;28;20051;-70
2023/09/22 16:03:17;;;;;;;1.20;0.90;;;;;;;16.23;100.00;100167.47;10481529;28;20511;-71
2023/09/22 16:08:18;;;;;;;2.97;0.80;;;;;;;16.06;100.00;100171.69;10475017;28;20033;-70
2023/09/22 16:13:18;;;;;;;2.65;1.75;;;;;;;15.93;100.00;100166.94;10467616;28;20133;-70
2023/09/22 16:18:19;;;;;;;3.78;1.15;;;;;;;15.92;100.00;100168.06;10455745;28;20033;-70
2023/09/22 16:23:19;;;;;;;1.27;0.80;;;;;;;16.01;100.00;100177.31;10478597;28;20040;-71
2023/09/22 16:28:20;;;;;;;2.90;0.80;;;;;;;16.06;100.00;100185.56;10476120;28;20037;-71
2023/09/22 16:33:20;;;;;;;1.98;0.80;;;;;;;16.11;100.00;100192.97;10477021;28;20102;-70
2023/09/22 16:38:21;;;;;;;1.80;0.95;;;;;;;16.17;100.00;100188.94;10476218;28;20045;-64
2023/09/22 16:43:22;;;;;;;0.90;0.77;;;;;;;16.11;100.00;100185.44;10467041;28;21043;-70
2023/09/22 16:48:22;;;;;;;2.10;0.90;;;;;;;15.97;100.00;100192.13;10442450;28;20062;-70
2023/09/22 16:53:23;;;;;;;2.33;1.52;;;;;;;15.78;100.00;100195.00;10462584;28;20108;-70
2023/09/22 16:58:23;;;;;;;1.60;0.77;;;;;;;15.61;100.00;100198.31;10445129;28;20041;-70
2023/09/22 17:03:23;;;;;;;3.47;1.20;;;;;;;15.51;100.00;100208.44;10442041;28;20283;-70
2023/09/22 17:08:24;;;;;;;2.40;0.90;;;;;;;15.39;100.00;100205.31;10444337;28;20045;-70
2023/09/22 17:13:25;;;;;;;3.05;0.80;;;;;;;15.27;100.00;100210.53;10466780;28;20044;-74
2023/09/22 17:18:25;;;;;;;1.10;0.80;;;;;;;15.12;100.00;100217.94;10476096;28;20037;-74
2023/09/22 17:23:26;;;;;;;1.73;0.93;;;;;;;14.97;100.00;100217.38;10468572;28;20076;-73
2023/09/22 17:28:26;;;;;;;1.23;0.70;;;;;;;14.83;100.00;100225.59;10483029;28;20045;-71
2023/09/22 17:33:28;;;;;;;1.60;0.90;;;;;;;14.66;100.00;100218.63;10483698;28;20492;-71
2023/09/22 17:38:30;;;;;;;1.10;0.70;;;;;;;14.49;100.00;100218.25;10490083;28;20107;-71
2023/09/22 17:43:31;;;;;;;2.45;1.00;;;;;;;14.33;100.00;100224.00;10478348;28;20070;-71
2023/09/22 17:48:33;;;;;;;2.25;1.50;;;;;;;14.23;100.00;100228.84;10484120;28;20455;-71
2023/09/22 17:53:34;;;;;;;1.80;0.88;;;;;;;14.10;100.00;100230.38;10481643;28;20049;-71
2023/09/22 17:58:35;;;;;;;1.52;1.00;;;;;;;13.97;100.00;100212.50;10482853;28;20048;-72
2023/09/22 18:03:35;;;;;;;2.72;1.30;;;;;;;13.98;100.00;100232.72;10480835;28;20036;-70
2023/09/22 18:08:37;;;;;;;8.63;3.20;;;;;;;13.80;100.00;100226.78;10485669;28;20033;-71
2023/09/22 18:13:37;;;;;;;3.72;1.88;;;;;;;13.90;100.00;100242.47;10481510;28;20033;-71
2023/09/22 18:18:39;;;;;;;5.03;2.20;;;;;;;13.99;100.00;100253.72;10483986;28;20041;-73
2023/09/22 18:23:39;;;;;;;3.72;1.70;;;;;;;14.09;100.00;100268.28;10472083;28;20051;-69
2023/09/22 18:28:41;;;;;;;3.38;1.92;;;;;;;14.17;100.00;100266.81;10478772;28;20508;-72
2023/09/22 18:33:41;;;;;;;3.25;1.50;;;;;;;14.23;100.00;100279.50;10474176;28;20044;-71
2023/09/22 18:38:42;;;;;;;3.72;0.88;;;;;;;14.19;100.00;100283.97;10482218;28;20063;-72
2023/09/22 18:43:42;;;;;;;2.75;0.77;;;;;;;14.16;100.00;100280.94;10484259;28;20045;-71
2023/09/22 18:48:43;;;;;;;0.70;0.57;;;;;;;14.10;100.00;100280.19;10482983;28;20048;-72
2023/09/22 18:53:45;;;;;;;1.75;0.63;;;;;;;14.06;100.00;100277.19;10484102;28;20045;-71
2023/09/22 18:58:46;;;;;;;2.67;0.60;;;;;;;14.01;100.00;100282.75;10483008;28;20043;-71
2023/09/22 19:03:47;;;;;;;1.02;0.65;;;;;;;13.92;100.00;100292.81;10480762;28;20175;-71
2023/09/22 19:08:48;;;;;;;2.35;0.60;;;;;;;13.85;100.00;100295.91;10482725;28;20071;-68
2023/09/22 19:13:49;;;;;;;0.80;0.60;;;;;;;13.76;100.00;100311.47;10478279;28;20033;-72
2023/09/22 19:18:50;;;;;;;2.60;0.80;;;;;;;13.66;100.00;100308.78;10481225;28;20041;-72
2023/09/22 19:23:50;;;;;;;2.17;1.15;;;;;;;13.57;100.00;100316.06;10480091;28;20069;-72
2023/09/22 19:28:51;;;;;;;1.65;0.98;;;;;;;13.45;100.00;100320.00;10482372;28;20044;-71
2023/09/22 19:33:52;;;;;;;1.25;0.70;;;;;;;13.31;100.00;100319.84;10477587;28;20040;-71
2023/09/22 19:38:52;;;;;;;1.77;0.77;;;;;;;13.20;100.00;100311.84;10476535;28;20029;-73
2023/09/22 19:43:55;;;;;;;1.10;0.68;;;;;;;13.06;100.00;100325.47;10477098;28;20048;-73
2023/09/22 19:48:58;;;;;;;2.40;1.02;;;;;;;12.93;100.00;100329.69;10481968;28;20042;-74
2023/09/22 19:53:59;;;;;;;1.75;0.80;;;;;;;12.54;100.00;100279.84;10479044;28;20048;-74
2023/09/22 19:59:00;;;;;;;1.25;0.95;;;;;;;12.85;100.00;100333.03;10477111;28;20052;-73
2023/09/22 20:04:01;;;;;;;2.40;1.40;;;;;;;12.89;100.00;100345.16;10476964;28;20048;-73
2023/09/22 20:09:08;;;;;;;3.45;1.73;;;;;;;12.95;100.00;100346.81;10479656;28;20608;-71
2023/09/22 20:14:09;;;;;;;4.05;1.50;;;;;;;13.02;100.00;100343.72;10474902;28;20099;-71
2023/09/22 20:19:09;;;;;;;2.05;1.35;;;;;;;13.03;100.00;100346.22;10481321;28;20036;-71
2023/09/22 20:24:10;;;;;;;2.03;1.58;;;;;;;13.06;100.00;100355.88;10472969;28;20037;-71
2023/09/22 20:29:10;;;;;;;3.88;1.60;;;;;;;13.01;100.00;100344.84;10461830;28;20041;-71
2023/09/22 20:34:11;;;;;;;4.50;1.77;;;;;;;13.10;100.00;100357.81;10455543;28;20048;-73
2023/09/22 20:39:12;;;;;;;2.17;1.23;;;;;;;13.13;100.00;100361.94;10470268;28;20037;-77
2023/09/22 20:44:12;;;;;;;3.58;2.00;;;;;;;13.11;100.00;100356.69;10459939;28;20394;-77
2023/09/22 20:49:13;;;;;;;4.28;2.20;;;;;;;13.10;100.00;100360.56;10467969;28;20047;-77
2023/09/22 20:54:14;;;;;;;3.13;2.53;;;;;;;13.02;100.00;100352.88;10466441;28;20040;-77
2023/09/22 20:59:14;;;;;;;4.32;2.45;;;;;;;13.03;100.00;100365.56;10475586;28;20060;-76
2023/09/22 21:04:15;;;;;;;3.70;2.88;;;;;;;12.69;100.00;100319.28;10486424;28;20053;-77
2023/09/22 21:09:15;;;;;;;4.65;3.70;;;;;;;12.99;100.00;100381.06;10490112;28;20036;-77
2023/09/22 21:14:17;;;;;;;7.53;4.97;;;;;;;12.92;100.00;100375.84;10479869;28;20480;-76
2023/09/22 21:19:17;;;;;;;8.55;4.88;;;;;;;12.86;100.00;100370.63;10477238;28;20429;-75
2023/09/22 21:24:18;;;;;;;8.68;4.95;;;;;;;12.82;100.00;100388.88;10482137;28;20040;-75
2023/09/22 21:29:21;;;;;;;7.82;5.53;;;;;;;12.80;100.00;100386.38;10483127;28;20048;-74
2023/09/22 21:34:22;;;;;;;8.35;6.05;;;;;;;12.79;100.00;100386.66;10472777;28;20044;-74
2023/09/22 21:39:23;;;;;;;8.95;5.30;;;;;;;12.76;100.00;100390.81;10463879;28;20044;-74
2023/09/22 21:44:25;;;;;;;12.30;5.72;;;;;;;12.76;100.00;100395.50;10470455;28;20049;-74
2023/09/22 21:49:26;;;;;;;7.65;5.47;;;;;;;12.70;100.00;100391.94;10471797;28;20041;-73
2023/09/22 21:54:26;;;;;;;11.60;7.20;;;;;;;12.69;100.00;100391.09;10471337;28;20045;-74
2023/09/22 21:59:27;;;;;;;10.82;6.55;;;;;;;12.68;100.00;100394.13;10475856;28;20044;-72
2023/09/22 22:04:28;;;;;;;9.13;6.68;;;;;;;12.58;100.00;100383.94;10463349;28;20036;-72
2023/09/22 22:09:28;;;;;;;11.02;6.85;;;;;;;12.68;100.00;100399.66;10485849;28;20051;-72
2023/09/22 22:14:29;;;;;;;12.07;7.10;;;;;;;12.71;100.00;100399.94;10475136;28;20044;-72
2023/09/22 22:19:30;;;;;;;8.93;6.60;;;;;;;12.70;100.00;100398.28;10483871;28;20044;-72
2023/09/22 22:24:30;;;;;;;8.63;6.07;;;;;;;12.70;100.00;100401.03;10480784;28;20040;-73
2023/09/22 22:29:31;;;;;;;9.55;7.22;;;;;;;12.69;100.00;100399.41;10480815;28;20049;-70
2023/09/22 22:34:32;;;;;;;9.13;6.75;;;;;;;12.69;100.00;100399.41;10476686;28;20151;-72
2023/09/22 22:39:34;;;;;;;9.80;6.88;;;;;;;12.65;100.00;100395.53;10460401;28;20041;-72
2023/09/22 22:44:36;;;;;;;10.45;6.45;;;;;;;12.66;100.00;100401.88;10472295;28;20040;-72
2023/09/22 22:49:39;;;;;;;10.00;6.95;;;;;;;12.68;100.00;100417.06;10460927;28;20032;-72